KBURKMMH

Guest
Details From KBUR - BOB HOPE
To KMMH - Mammoth Yosemite
Flight Number -
Tags generated
Created
Modified
Stats Distance 211 nm / 391 km
Max Altitude 22,000 ft / 6,706 m
Waypoints 3
Social Downloads 1
Likes 0
Share VATSIM

Download

Looking for another format? Having issues loading an existing format? Contact us
Advertisement - Login to hide

Notes

Basic altitude profile: - Ascent Rate: 2500ft/min - Ascent Speed: 250kts - Cruise Altitude: 35000ft - Cruise Speed: 420kts - Descent Rate: 1500ft/min - Descent Speed: 250kts Options: - Use NATs: yes - Use PACOTS: yes - Use low airways: yes - Use high airways: yes

Route

KBUR TTE KMMH

ID Type Via Altitude Latitude Longitude Leg Dist Tot Dist Heading (true) Name
O KBUR APT - 0 ft / 0 m 34.20048˚ -118.35877˚ - 0 nm - BOB HOPE
TTE VOR - 22,000 ft / 6,706 m 35.91306˚ -119.02081˚ 107 nm 107 nm 343° / 342° TULE VOR-DME
O KMMH APT - 0 ft / 0 m 37.62405˚ -118.83874˚ 103 nm 211 nm 5° / 5° Mammoth Yosemite

Altitude Profile

Advertisement - Login to hide

Weather


0- 5 10 15 20 25 30 35+ Temperature / ° C

Clouds and Precipitation
Forecast for 2018-05-28 00:00 UTC. Updated 2 hours ago

Ground ~20,000 ft ~40,000 ft Winds

KBUR

Details ICAO KBUR (BUR)
Name BOB HOPE
Region United States
Timezone America/Los_Angeles (UTC-7.0)
Stats Elevation 778 ft / 237 m (AMSL)
Location 34.200475° -118.358767°
Runways 2
Magnetic Variation 12.007° E

METAR

Not found

TAF

TAF KBUR 272340Z 2800/2824 20006KT P6SM SKC FM280500 VRB03KT P6SM SKC FM281000 VRB03KT P6SM BKN015 FM281500 VRB03KT 6SM HZ BKN020 FM281700 VRB03KT P6SM SKC FM282000 18008KT P6SM SKC

Decode

Departure Runways

ID Width Length Bearing (true) Bearing (mag) Surface Threshold Offset Overrun Length
08 151 ft / 46 m 5,835 ft / 1,779 m 90.92° 78.91° Asphalt 0 ft / 0 m 259 ft / 79 m
15 151 ft / 46 m 6,962 ft / 2,122 m 167.12° 155.11° Asphalt 909 ft / 277 m 0 ft / 0 m
26 151 ft / 46 m 5,835 ft / 1,779 m 270.93° 258.92° Asphalt 0 ft / 0 m 253 ft / 77 m
33 151 ft / 46 m 6,962 ft / 2,122 m 347.12° 335.11° Asphalt 351 ft / 107 m 0 ft / 0 m

KMMH

Details ICAO KMMH (MMH)
Name Mammoth Yosemite
Region United States
Timezone America/Los_Angeles (UTC-7.0)
Stats Elevation 7,128 ft / 2,173 m (AMSL)
Location 37.624049° -118.838737°
Runways 1
Magnetic Variation 12.780° E

METAR

Not found

TAF

TAF KMMH 272320Z 2800/2824 19011KT P6SM VCSH FEW030 SCT060 BKN150 FM280200 30008KT P6SM FEW060 SCT150 FM280500 29008KT P6SM FEW150 FM281900 30008G15KT P6SM FEW050 SCT150 FM282200 31011G19KT P6SM VCSH SCT050 BKN150

Decode

Destination Runways

ID Width Length Bearing (true) Bearing (mag) Surface Threshold Offset Overrun Length
09 98 ft / 30 m 6,987 ft / 2,130 m 109.02° 96.24° Asphalt 0 ft / 0 m 2,999 ft / 914 m
27 98 ft / 30 m 6,987 ft / 2,130 m 289.03° 276.25° Asphalt 0 ft / 0 m 0 ft / 0 m

Popular Alternatives